Tropical Cyclones
[Index]
Main Index Home Page Stock Weather Photos Extreme Storms Discussion Storm News and Storm Chasing Reports Tropical Cyclones / Hurricanes / Typhoons Weather Data and Links Wild Fires / Bushfires Weather Observation Techniques Weather Picture Catalogue Tornado Pictures and Reports Stock Video Footage and DVDs for sale
Season 2001-2002 Tropical Cyclone EDDY Track Map
Season 2001-2002 Summaries (Operational Data): [AU] [SIO] [SPAC] [SH]
<<- Previous TC | 2001-2002 Season | Next TC ->>

click for intensity scale information  Lat/long Grid: Show Hide

 Date Labels: Show Hide

Operational Tropical Cyclone Data : JTWC Advisories

Name: EDDY
Number: 0211

22 Jan 2002 12:00 UTC to 28 Jan 2002 12:00 UTC

    date/time    lat    long     hPa   cat  kts
2002-01-22 12    9.5    89.5    1005         25          
2002-01-23 00   10.0    89.0    1002         25          
2002-01-23 06   11.8    89.3    1002         25          
2002-01-23 12   11.4    88.9    1000         25          
2002-01-23 18   11.8    90.1     998         30          
2002-01-24 00   12.0    89.8     997         30          
2002-01-24 06   12.2    88.3     997         30          
2002-01-24 12   11.8    87.9     995    1    35          
2002-01-24 18   13.2    88.4     995    1    35          
2002-01-25 00   13.6    88.7     990    1    40          
2002-01-25 06   14.8    88.6     990    1    40          
2002-01-25 12   15.5    88.4     985    2    50          
2002-01-25 18   16.0    88.9     980    2    55          
2002-01-26 00   17.2    89.7     976    2    55          
2002-01-26 06   18.2    89.7     966    3    70          
2002-01-26 12   19.3    89.6     966    3    70          
2002-01-26 18   20.1    89.5     965    3    65          
2002-01-27 00   20.8    89.2     975    2    55          
2002-01-27 06   21.2    88.6     980    2    55          
2002-01-27 12   21.5    87.6     982    2    55          
2002-01-27 18   22.1    86.6     985    2    50          
2002-01-28 00   22.3    86.0     990    1    45          
2002-01-28 06   22.6    84.4     997         30          
2002-01-28 12   22.8    83.3     999         25          
Winds are 10-min average.

Tropical cyclone tracks developed by Michael Bath using operational warnings and advisories and Google Maps.


[Australian Severe Weather index] [Copyright Notice] [Email Contacts] [Search This Site] [Privacy Policy]
Document: tropical_cyclone_eddy.htm Updated: 28 May 2013